createdAt,value
2019-01-22T00:00:20.066Z,0.36
2019-01-22T00:01:20.054Z,0.44
2019-01-22T00:02:20.017Z,0.51
2019-01-22T00:03:19.990Z,0.51
2019-01-22T00:04:19.965Z,0.66
2019-01-22T00:05:19.941Z,0.48
2019-01-22T00:06:19.914Z,0.44
2019-01-22T00:07:19.890Z,0.55
2019-01-22T00:08:19.867Z,0.56
2019-01-22T00:09:19.844Z,0.56
2019-01-22T00:10:19.818Z,0.51
2019-01-22T00:11:19.792Z,0.48
2019-01-22T00:12:19.767Z,0.36
2019-01-22T00:13:19.748Z,0.37
2019-01-22T00:14:19.715Z,0.26
2019-01-22T00:15:19.692Z,0.04
2019-01-22T00:16:19.666Z,0.00
2019-01-22T00:17:19.639Z,-0.03
2019-01-22T00:18:19.614Z,0.15
2019-01-22T00:19:19.589Z,0.22
2019-01-22T00:20:19.563Z,0.15
2019-01-22T00:21:19.539Z,0.18
2019-01-22T00:22:19.514Z,0.14
2019-01-22T00:23:19.498Z,0.18
2019-01-22T00:24:19.463Z,0.09
2019-01-22T00:25:19.439Z,0.07
2019-01-22T00:26:19.416Z,0.05
2019-01-22T00:27:19.393Z,0.05
2019-01-22T00:28:19.364Z,0.02
2019-01-22T00:29:19.344Z,0.25
2019-01-22T00:30:19.313Z,0.29
2019-01-22T00:31:19.292Z,0.15
2019-01-22T00:32:19.265Z,0.20
2019-01-22T00:33:19.247Z,0.11
2019-01-22T00:34:19.214Z,0.22
2019-01-22T00:35:19.195Z,0.15
2019-01-22T00:36:19.170Z,0.27
2019-01-22T00:37:19.144Z,0.44
2019-01-22T00:38:19.121Z,0.40
2019-01-22T00:39:19.093Z,0.40
2019-01-22T00:40:19.066Z,0.07
2019-01-22T00:41:19.040Z,0.04
2019-01-22T00:42:19.016Z,-0.13
2019-01-22T00:43:18.993Z,-0.11
2019-01-22T00:44:18.965Z,-0.11
2019-01-22T00:45:18.940Z,-0.07
2019-01-22T00:46:18.920Z,-0.14
2019-01-22T00:47:18.896Z,-0.14
2019-01-22T00:48:18.865Z,-0.22
2019-01-22T00:49:18.849Z,-0.20
2019-01-22T00:50:18.815Z,-0.20
2019-01-22T00:51:18.790Z,-0.17
2019-01-22T00:52:18.765Z,-0.22
2019-01-22T00:53:18.738Z,-0.16
2019-01-22T00:54:18.713Z,-0.20
2019-01-22T00:55:18.693Z,-0.28
2019-01-22T00:56:18.660Z,-0.22
2019-01-22T00:57:18.639Z,-0.28
2019-01-22T00:58:18.618Z,-0.31
2019-01-22T00:59:18.585Z,-0.49
2019-01-22T01:00:18.559Z,-0.45
2019-01-22T01:01:18.534Z,-0.46
2019-01-22T01:02:18.519Z,-0.67
2019-01-22T01:03:18.484Z,-0.73
2019-01-22T01:04:18.459Z,-0.60
2019-01-22T01:05:18.441Z,-0.58
2019-01-22T01:06:18.410Z,-0.68
2019-01-22T01:07:18.382Z,-0.58
2019-01-22T01:08:18.363Z,-0.64
2019-01-22T01:09:18.331Z,-0.50
2019-01-22T01:10:18.306Z,-0.47
2019-01-22T01:11:18.284Z,-0.35
2019-01-22T01:12:18.268Z,-0.21
2019-01-22T01:13:18.228Z,-0.25
2019-01-22T01:14:18.204Z,-0.06
2019-01-22T01:15:18.184Z,-0.14
2019-01-22T01:16:18.154Z,-0.34
2019-01-22T01:17:18.126Z,-0.20
2019-01-22T01:18:18.107Z,-0.46
2019-01-22T01:19:18.078Z,-0.52
2019-01-22T01:20:18.051Z,-0.68
2019-01-22T01:21:18.029Z,-0.86
2019-01-22T01:22:18.002Z,-0.89
2019-01-22T01:23:17.976Z,-0.95
2019-01-22T01:24:17.956Z,-0.84
2019-01-22T01:25:17.921Z,-0.89
2019-01-22T01:26:17.897Z,-0.82
2019-01-22T01:27:17.871Z,-0.82
2019-01-22T01:28:17.844Z,-0.63
2019-01-22T01:29:17.818Z,-0.55
2019-01-22T01:30:17.792Z,-0.47
2019-01-22T01:31:17.766Z,-0.50
2019-01-22T01:32:17.740Z,-0.35
2019-01-22T01:33:17.720Z,-0.40
2019-01-22T01:34:17.688Z,-0.64
2019-01-22T01:35:17.665Z,-0.81
2019-01-22T01:36:17.637Z,-0.82
2019-01-22T01:37:17.623Z,-0.86
2019-01-22T01:38:17.587Z,-0.89
2019-01-22T01:39:17.568Z,-0.81
2019-01-22T01:40:17.536Z,-0.78
2019-01-22T01:41:17.512Z,-0.90
2019-01-22T01:42:17.487Z,-0.94
2019-01-22T01:43:17.458Z,-0.97
2019-01-22T01:44:17.432Z,-1.08
2019-01-22T01:45:17.405Z,-1.13
2019-01-22T01:46:17.382Z,-1.13
2019-01-22T01:47:17.355Z,-1.13
2019-01-22T01:48:17.330Z,-1.07
2019-01-22T01:49:17.315Z,-0.92
2019-01-22T01:50:17.283Z,-0.68
2019-01-22T01:51:17.301Z,-0.57
2019-01-22T01:52:17.225Z,-0.45
2019-01-22T01:53:23.685Z,-0.46
2019-01-22T01:54:17.175Z,-0.42
2019-01-22T01:55:17.148Z,-0.34
2019-01-22T01:56:17.121Z,-0.35
2019-01-22T01:57:17.097Z,-0.32
2019-01-22T01:58:17.080Z,-0.46
2019-01-22T01:59:17.047Z,-0.50
2019-01-22T02:00:17.021Z,-0.53
2019-01-22T02:01:16.999Z,-0.60
2019-01-22T02:02:16.970Z,-0.71
2019-01-22T02:03:16.943Z,-0.94
2019-01-22T02:04:16.930Z,-0.90
2019-01-22T02:05:16.893Z,-1.04
2019-01-22T02:06:16.873Z,-0.98
2019-01-22T02:07:16.839Z,-1.05
2019-01-22T02:08:16.813Z,-1.10
2019-01-22T02:09:16.787Z,-1.01
2019-01-22T02:10:16.765Z,-0.98
2019-01-22T02:11:16.737Z,-1.01
2019-01-22T02:12:16.711Z,-1.04
2019-01-22T02:13:16.682Z,-1.04
2019-01-22T02:14:16.657Z,-1.04
2019-01-22T02:15:16.632Z,-1.15
2019-01-22T02:16:16.605Z,-1.23
2019-01-22T02:17:16.582Z,-1.26
2019-01-22T02:18:16.552Z,-1.36
2019-01-22T02:19:16.527Z,-1.33
2019-01-22T02:20:16.501Z,-1.22
2019-01-22T02:21:16.483Z,-1.15
2019-01-22T02:22:16.450Z,-1.00
2019-01-22T02:23:16.425Z,-0.97
2019-01-22T02:24:16.399Z,-0.94
2019-01-22T02:25:16.381Z,-1.13
2019-01-22T02:26:16.346Z,-1.34
2019-01-22T02:27:16.321Z,-1.59
2019-01-22T02:28:16.295Z,-1.73
2019-01-22T02:29:16.268Z,-1.90
2019-01-22T02:30:16.244Z,-1.85
2019-01-22T02:31:16.218Z,-1.97
2019-01-22T02:32:16.191Z,-1.90
2019-01-22T02:33:16.162Z,-1.94
2019-01-22T02:34:16.142Z,-1.93
2019-01-22T02:35:16.113Z,-1.88
2019-01-22T02:36:16.083Z,-1.97
2019-01-22T02:37:16.061Z,-1.93
2019-01-22T02:38:16.036Z,-1.90
2019-01-22T02:39:16.006Z,-2.00
2019-01-22T02:40:15.983Z,-1.94
2019-01-22T02:41:15.953Z,-1.96
2019-01-22T02:42:15.926Z,-1.96
2019-01-22T02:43:15.899Z,-1.88
2019-01-22T02:44:15.874Z,-1.91
2019-01-22T02:45:15.848Z,-1.85
2019-01-22T02:46:15.825Z,-1.79
2019-01-22T02:47:15.796Z,-1.82
2019-01-22T02:48:15.766Z,-1.79
2019-01-22T02:49:15.743Z,-1.79
2019-01-22T02:50:15.716Z,-1.75
2019-01-22T02:51:15.689Z,-1.86
2019-01-22T02:52:15.668Z,-1.96
2019-01-22T02:53:15.630Z,-1.86
2019-01-22T02:54:15.602Z,-1.83
2019-01-22T02:55:15.579Z,-1.98
2019-01-22T02:56:15.560Z,-1.94
2019-01-22T02:57:15.524Z,-2.12
2019-01-22T02:58:15.503Z,-2.08
2019-01-22T02:59:15.477Z,-2.06
2019-01-22T03:00:15.446Z,-2.04
2019-01-22T03:01:15.416Z,-2.06
2019-01-22T03:02:15.391Z,-2.04
2019-01-22T03:03:15.373Z,-2.00
2019-01-22T03:04:15.336Z,-2.11
2019-01-22T03:05:15.314Z,-2.16
2019-01-22T03:06:15.286Z,-2.26
2019-01-22T03:07:15.259Z,-2.41
2019-01-22T03:08:15.236Z,-2.51
2019-01-22T03:09:15.210Z,-2.54
2019-01-22T03:10:15.179Z,-2.43
2019-01-22T03:11:15.153Z,-2.35
2019-01-22T03:12:15.123Z,-2.43
2019-01-22T03:13:15.096Z,-2.41
2019-01-22T03:14:15.074Z,-2.26
2019-01-22T03:15:15.051Z,-2.22
2019-01-22T03:16:15.017Z,-2.08
2019-01-22T03:17:14.993Z,-1.96
2019-01-22T03:18:14.963Z,-1.90
2019-01-22T03:19:14.938Z,-1.90
2019-01-22T03:20:14.911Z,-1.93
2019-01-22T03:21:14.884Z,-1.96
2019-01-22T03:22:14.859Z,-1.96
2019-01-22T03:23:14.837Z,-2.01
2019-01-22T03:24:14.805Z,-2.16
2019-01-22T03:25:14.776Z,-2.14
2019-01-22T03:26:14.753Z,-2.08
2019-01-22T03:27:14.730Z,-2.00
2019-01-22T03:28:14.698Z,-1.91
2019-01-22T03:29:14.675Z,-1.80
2019-01-22T03:30:14.657Z,-1.82
2019-01-22T03:31:14.625Z,-1.90
2019-01-22T03:32:14.592Z,-1.96
2019-01-22T03:33:14.569Z,-2.09
2019-01-22T03:34:14.551Z,-2.16
2019-01-22T03:35:14.517Z,-2.15
2019-01-22T03:36:14.488Z,-2.18
2019-01-22T03:37:14.462Z,-2.11
2019-01-22T03:38:14.439Z,-2.09
2019-01-22T03:39:14.407Z,-2.09
2019-01-22T03:40:14.382Z,-1.98
2019-01-22T03:41:14.357Z,-2.03
2019-01-22T03:42:14.330Z,-2.09
2019-01-22T03:43:14.313Z,-2.22
2019-01-22T03:44:14.275Z,-2.18
2019-01-22T03:45:14.245Z,-2.15
2019-01-22T03:46:14.219Z,-2.06
2019-01-22T03:47:14.195Z,-1.97
2019-01-22T03:48:14.175Z,-1.97
2019-01-22T03:49:14.140Z,-1.80
2019-01-22T03:50:14.112Z,-1.72
2019-01-22T03:51:14.089Z,-1.80
2019-01-22T03:52:14.060Z,-1.70
2019-01-22T03:53:14.035Z,-1.64
2019-01-22T03:54:14.006Z,-1.55
2019-01-22T03:55:13.985Z,-1.52
2019-01-22T03:56:13.956Z,-1.54
2019-01-22T03:57:13.929Z,-1.41
2019-01-22T03:58:13.901Z,-1.57
2019-01-22T03:59:13.875Z,-1.54
2019-01-22T04:00:13.847Z,-1.59
2019-01-22T04:01:13.820Z,-1.57
2019-01-22T04:02:13.794Z,-1.51
2019-01-22T04:03:13.768Z,-1.51
2019-01-22T04:04:13.744Z,-1.52
2019-01-22T04:05:13.713Z,-1.55
2019-01-22T04:06:13.693Z,-1.47
2019-01-22T04:07:13.662Z,-1.55
2019-01-22T04:08:13.638Z,-1.52
2019-01-22T04:09:13.610Z,-1.55
2019-01-22T04:10:13.585Z,-1.51
2019-01-22T04:11:13.555Z,-1.54
2019-01-22T04:12:13.527Z,-1.65
2019-01-22T04:13:13.517Z,-1.73
2019-01-22T04:14:13.476Z,-1.79
2019-01-22T04:15:13.452Z,-1.80
2019-01-22T04:16:13.422Z,-1.79
2019-01-22T04:17:13.395Z,-1.98
2019-01-22T04:18:13.371Z,-2.04
2019-01-22T04:19:13.346Z,-2.08
2019-01-22T04:20:13.323Z,-2.14
2019-01-22T04:21:13.291Z,-2.11
2019-01-22T04:22:13.263Z,-2.03
2019-01-22T04:23:13.245Z,-2.09
2019-01-22T04:24:13.210Z,-1.98
2019-01-22T04:25:13.193Z,-2.03
2019-01-22T04:26:13.164Z,-1.97
2019-01-22T04:27:13.132Z,-2.00
2019-01-22T04:28:13.104Z,-1.98
2019-01-22T04:29:13.075Z,-1.96
2019-01-22T04:30:13.058Z,-2.08
2019-01-22T04:31:13.029Z,-2.01
2019-01-22T04:32:12.999Z,-2.15
2019-01-22T04:33:12.971Z,-2.24
2019-01-22T04:34:12.945Z,-2.24
2019-01-22T04:35:12.918Z,-2.24
2019-01-22T04:36:12.888Z,-2.16
2019-01-22T04:37:12.863Z,-2.27
2019-01-22T04:38:12.842Z,-2.27
2019-01-22T04:39:12.812Z,-2.27
2019-01-22T04:40:12.783Z,-2.34
2019-01-22T04:41:12.761Z,-2.34
2019-01-22T04:42:12.738Z,-2.43
2019-01-22T04:43:12.709Z,-2.48
2019-01-22T04:44:12.675Z,-2.55
2019-01-22T04:45:13.469Z,-2.59
2019-01-22T04:46:12.623Z,-2.76
2019-01-22T04:47:12.595Z,-2.84
2019-01-22T04:48:12.604Z,-2.82
2019-01-22T04:49:12.540Z,-2.84
2019-01-22T04:50:12.515Z,-2.87
2019-01-22T04:51:12.488Z,-2.92
2019-01-22T04:52:12.466Z,-2.92
2019-01-22T04:53:12.433Z,-2.80
2019-01-22T04:54:12.411Z,-2.79
2019-01-22T04:55:12.383Z,-2.80
2019-01-22T04:56:12.353Z,-2.84
2019-01-22T04:57:12.327Z,-2.79
2019-01-22T04:58:12.313Z,-2.72
2019-01-22T04:59:12.274Z,-2.70
2019-01-22T05:00:12.248Z,-2.74
2019-01-22T05:01:12.220Z,-2.70
2019-01-22T05:02:12.200Z,-2.61
2019-01-22T05:03:12.166Z,-2.61
2019-01-22T05:04:12.139Z,-2.63
2019-01-22T05:05:12.130Z,-2.61
2019-01-22T05:06:12.086Z,-2.67
2019-01-22T05:07:12.058Z,-2.73
2019-01-22T05:08:12.029Z,-2.70
2019-01-22T05:09:12.005Z,-2.69
2019-01-22T05:10:11.977Z,-2.76
2019-01-22T05:11:11.948Z,-2.84
2019-01-22T05:12:11.920Z,-2.82
2019-01-22T05:13:11.894Z,-2.79
2019-01-22T05:14:11.877Z,-2.74
2019-01-22T05:15:11.842Z,-2.63
2019-01-22T05:16:11.810Z,-2.55
2019-01-22T05:17:11.819Z,-2.54
2019-01-22T05:18:11.758Z,-2.51
2019-01-22T05:19:11.730Z,-2.37
2019-01-22T05:20:11.701Z,-2.41
2019-01-22T05:21:11.676Z,-2.35
2019-01-22T05:22:11.648Z,-2.40
2019-01-22T05:23:11.621Z,-2.55
2019-01-22T05:24:17.656Z,-2.51
2019-01-22T05:25:11.568Z,-2.55
2019-01-22T05:26:11.539Z,-2.63
2019-01-22T05:27:11.519Z,-2.55
2019-01-22T05:28:11.486Z,-2.56
2019-01-22T05:29:11.457Z,-2.63
2019-01-22T05:30:11.430Z,-2.66
2019-01-22T05:31:11.409Z,-2.54
2019-01-22T05:32:11.378Z,-2.58
2019-01-22T05:33:11.349Z,-2.64
2019-01-22T05:34:11.321Z,-2.66
2019-01-22T05:35:11.303Z,-2.74
2019-01-22T05:36:11.269Z,-2.66
2019-01-22T05:37:11.245Z,-2.63
2019-01-22T05:38:11.214Z,-2.54
2019-01-22T05:39:11.189Z,-2.45
2019-01-22T05:40:11.163Z,-2.43
2019-01-22T05:41:11.131Z,-2.33
2019-01-22T05:42:11.105Z,-2.27
2019-01-22T05:43:11.080Z,-2.29
2019-01-22T05:44:11.053Z,-2.33
2019-01-22T05:45:11.027Z,-2.30
2019-01-22T05:46:11.013Z,-2.41
2019-01-22T05:47:10.972Z,-2.46
2019-01-22T05:48:13.477Z,-2.59
2019-01-22T05:49:10.920Z,-2.61
2019-01-22T05:50:10.915Z,-2.66
2019-01-22T05:51:10.867Z,-2.73
2019-01-22T05:52:10.835Z,-2.85
2019-01-22T05:53:10.810Z,-2.94
2019-01-22T05:54:10.782Z,-2.90
2019-01-22T05:55:10.767Z,-2.84
2019-01-22T05:56:10.727Z,-2.87
2019-01-22T05:57:10.705Z,-2.79
2019-01-22T05:58:10.681Z,-2.77
2019-01-22T05:59:10.646Z,-2.85
2019-01-22T06:00:10.623Z,-2.80
2019-01-22T06:01:10.593Z,-2.73
2019-01-22T06:02:10.574Z,-2.64
2019-01-22T06:03:10.575Z,-2.76
2019-01-22T06:04:10.544Z,-2.85
2019-01-22T06:05:10.574Z,-2.87
2019-01-22T06:06:10.593Z,-2.82
2019-01-22T06:07:10.445Z,-2.88
2019-01-22T06:08:10.402Z,-2.90
2019-01-22T06:09:10.382Z,-2.95
2019-01-22T06:10:10.348Z,-2.95
2019-01-22T06:11:10.322Z,-3.09
2019-01-22T06:12:10.292Z,-3.03
2019-01-22T06:13:10.263Z,-2.92
2019-01-22T06:14:10.241Z,-3.01
2019-01-22T06:15:10.211Z,-3.01
2019-01-22T06:16:10.190Z,-2.88
2019-01-22T06:17:10.154Z,-2.88
2019-01-22T06:18:10.134Z,-2.87
2019-01-22T06:19:10.110Z,-2.95
2019-01-22T06:20:10.078Z,-2.90
2019-01-22T06:21:10.047Z,-2.87
2019-01-22T06:22:10.022Z,-2.90
2019-01-22T06:23:09.996Z,-2.95
2019-01-22T06:24:09.974Z,-3.08
2019-01-22T06:25:09.942Z,-3.20
2019-01-22T06:26:09.912Z,-3.24
2019-01-22T06:27:09.887Z,-3.27
2019-01-22T06:28:09.860Z,-3.34
2019-01-22T06:29:09.833Z,-3.30
2019-01-22T06:30:09.805Z,-3.38
2019-01-22T06:31:09.776Z,-3.34
2019-01-22T06:32:09.755Z,-3.34
2019-01-22T06:33:09.719Z,-3.31
2019-01-22T06:34:09.702Z,-3.26
2019-01-22T06:35:09.670Z,-3.21
2019-01-22T06:36:09.644Z,-3.20
2019-01-22T06:37:09.623Z,-3.09
2019-01-22T06:38:09.583Z,-3.03
2019-01-22T06:39:09.559Z,-3.06
2019-01-22T06:40:09.529Z,-3.05
2019-01-22T06:41:09.501Z,-3.15
2019-01-22T06:42:09.475Z,-3.15
2019-01-22T06:43:09.443Z,-3.05
2019-01-22T06:44:09.420Z,-2.97
2019-01-22T06:45:09.393Z,-2.98
2019-01-22T06:46:09.362Z,-3.06
2019-01-22T06:47:09.340Z,-3.02
2019-01-22T06:48:09.311Z,-3.02
2019-01-22T06:49:09.296Z,-3.01
2019-01-22T06:50:09.254Z,-3.10
2019-01-22T06:51:09.227Z,-3.06
2019-01-22T06:52:09.202Z,-2.94
2019-01-22T06:53:09.170Z,-2.92
2019-01-22T06:54:09.144Z,-2.91
2019-01-22T06:55:09.116Z,-2.77
2019-01-22T06:56:09.087Z,-2.72
2019-01-22T06:57:09.060Z,-2.79
2019-01-22T06:58:09.034Z,-2.85
2019-01-22T06:59:09.005Z,-2.88
2019-01-22T07:00:08.978Z,-2.90
2019-01-22T07:01:08.948Z,-2.88
2019-01-22T07:02:08.926Z,-2.91
2019-01-22T07:03:08.896Z,-2.84
2019-01-22T07:04:08.867Z,-2.84
2019-01-22T07:05:08.840Z,-2.82
2019-01-22T07:06:08.815Z,-2.87
2019-01-22T07:07:08.786Z,-2.85
2019-01-22T07:08:08.761Z,-2.87
2019-01-22T07:09:08.735Z,-2.80
2019-01-22T07:10:08.706Z,-2.76
2019-01-22T07:11:08.679Z,-2.73
2019-01-22T07:12:08.654Z,-2.84
2019-01-22T07:13:08.622Z,-2.92
2019-01-22T07:14:08.596Z,-2.92
2019-01-22T07:15:08.571Z,-2.95
2019-01-22T07:16:08.541Z,-2.79
2019-01-22T07:17:08.512Z,-2.85
2019-01-22T07:18:08.487Z,-2.84
2019-01-22T07:19:08.464Z,-2.87
2019-01-22T07:20:08.432Z,-3.02
2019-01-22T07:21:08.404Z,-3.01
2019-01-22T07:22:08.377Z,-2.88
2019-01-22T07:23:08.356Z,-2.92
2019-01-22T07:24:08.323Z,-3.03
2019-01-22T07:25:08.294Z,-3.08
2019-01-22T07:26:08.268Z,-3.03
2019-01-22T07:27:08.247Z,-3.06
2019-01-22T07:28:08.214Z,-3.01
2019-01-22T07:29:08.186Z,-3.02
2019-01-22T07:30:08.157Z,-3.03
2019-01-22T07:31:08.134Z,-2.91
2019-01-22T07:32:08.100Z,-2.87
2019-01-22T07:33:08.073Z,-2.87
2019-01-22T07:34:08.260Z,-2.88
2019-01-22T07:35:08.025Z,-2.92
2019-01-22T07:36:07.994Z,-2.94
2019-01-22T07:37:07.965Z,-2.92
2019-01-22T07:38:07.948Z,-2.91
2019-01-22T07:39:07.912Z,-2.85
2019-01-22T07:40:07.894Z,-2.82
2019-01-22T07:41:07.859Z,-2.95
2019-01-22T07:42:07.828Z,-3.03
2019-01-22T07:43:08.480Z,-2.97
2019-01-22T07:44:07.778Z,-3.02
2019-01-22T07:45:07.749Z,-2.98
2019-01-22T07:46:07.719Z,-2.92
2019-01-22T07:47:07.692Z,-2.88
2019-01-22T07:48:07.667Z,-2.88
2019-01-22T07:49:07.637Z,-2.87
2019-01-22T07:50:07.612Z,-3.01
2019-01-22T07:51:07.585Z,-2.94
2019-01-22T07:52:07.557Z,-3.10
2019-01-22T07:53:07.527Z,-2.91
2019-01-22T07:54:07.504Z,-2.91
2019-01-22T07:55:07.481Z,-2.84
2019-01-22T07:56:07.449Z,-2.92
2019-01-22T07:57:07.436Z,-2.92
2019-01-22T07:58:07.401Z,-2.84
2019-01-22T07:59:07.366Z,-2.80
2019-01-22T08:00:07.340Z,-2.67
2019-01-22T08:01:07.321Z,-2.72
2019-01-22T08:02:07.285Z,-2.74
2019-01-22T08:03:07.264Z,-2.70
2019-01-22T08:04:07.233Z,-2.67
2019-01-22T08:05:07.209Z,-2.69
2019-01-22T08:06:07.184Z,-2.70
2019-01-22T08:07:07.153Z,-2.59
2019-01-22T08:08:07.133Z,-2.59
2019-01-22T08:09:07.097Z,-2.59
2019-01-22T08:10:07.068Z,-2.64
2019-01-22T08:11:07.254Z,-2.67
2019-01-22T08:12:07.011Z,-2.55
2019-01-22T08:13:06.986Z,-2.40
2019-01-22T08:14:06.964Z,-2.19
2019-01-22T08:15:06.934Z,-2.04
2019-01-22T08:16:06.905Z,-1.86
2019-01-22T08:17:06.879Z,-1.93
2019-01-22T08:18:06.854Z,-1.91
2019-01-22T08:19:06.831Z,-1.88
2019-01-22T08:20:06.799Z,-1.91
2019-01-22T08:21:06.775Z,-1.75
2019-01-22T08:22:06.749Z,-1.79
2019-01-22T08:23:06.729Z,-1.76
2019-01-22T08:24:06.700Z,-1.69
2019-01-22T08:25:06.670Z,-1.75
2019-01-22T08:26:06.646Z,-1.94
2019-01-22T08:27:06.619Z,-2.12
2019-01-22T08:28:06.593Z,-1.97
2019-01-22T08:29:06.563Z,-1.94
2019-01-22T08:30:06.538Z,-1.67
2019-01-22T08:31:06.513Z,-1.75
2019-01-22T08:32:06.485Z,-1.65
2019-01-22T08:33:06.459Z,-1.64
2019-01-22T08:34:06.445Z,-1.52
2019-01-22T08:35:06.411Z,-1.33
2019-01-22T08:36:06.402Z,-1.49
2019-01-22T08:37:06.362Z,-1.52
2019-01-22T08:38:06.333Z,-1.62
2019-01-22T08:39:06.311Z,-1.46
2019-01-22T08:40:06.281Z,-1.40
2019-01-22T08:41:06.641Z,-1.44
2019-01-22T08:42:06.233Z,-1.31
2019-01-22T08:43:06.206Z,-1.39
2019-01-22T08:44:06.189Z,-1.28
2019-01-22T08:45:06.151Z,-1.36
2019-01-22T08:46:06.125Z,-1.37
2019-01-22T08:47:06.101Z,-1.00
2019-01-22T08:48:06.084Z,-0.89
2019-01-22T08:49:06.053Z,-0.47
2019-01-22T08:50:06.034Z,0.02
2019-01-22T08:51:06.007Z,0.00
2019-01-22T08:52:05.981Z,0.43
2019-01-22T08:53:05.961Z,0.18
2019-01-22T08:54:05.936Z,0.37
2019-01-22T08:55:08.263Z,0.80
2019-01-22T08:56:05.883Z,0.37
2019-01-22T08:57:05.859Z,0.26
2019-01-22T08:58:05.840Z,0.09
2019-01-22T08:59:05.818Z,0.48
2019-01-22T09:00:05.796Z,0.29
2019-01-22T09:01:05.801Z,0.48
2019-01-22T09:02:05.755Z,0.82
2019-01-22T09:03:05.725Z,0.32
2019-01-22T09:04:05.703Z,0.51
2019-01-22T09:05:05.680Z,0.64
2019-01-22T09:06:05.661Z,0.90
2019-01-22T09:07:05.637Z,1.12
2019-01-22T09:08:09.745Z,0.78
2019-01-22T09:09:05.592Z,0.73
2019-01-22T09:10:05.570Z,1.09
2019-01-22T09:11:05.550Z,1.03
2019-01-22T09:12:05.531Z,0.91
2019-01-22T09:13:05.511Z,1.09
2019-01-22T09:14:05.484Z,1.06
2019-01-22T09:15:05.462Z,0.60
2019-01-22T09:16:05.441Z,0.56
2019-01-22T09:17:05.420Z,0.94
2019-01-22T09:18:05.401Z,0.94
2019-01-22T09:19:05.377Z,0.85
2019-01-22T09:20:05.356Z,0.74
2019-01-22T09:21:05.342Z,0.84
2019-01-22T09:22:05.317Z,1.20
2019-01-22T09:23:05.293Z,1.17
2019-01-22T09:24:05.269Z,0.70
2019-01-22T09:25:05.249Z,0.87
2019-01-22T09:26:05.230Z,0.64
2019-01-22T09:27:05.212Z,0.76
2019-01-22T09:28:05.183Z,1.16
2019-01-22T09:29:05.161Z,1.38
2019-01-22T09:30:05.143Z,1.42
2019-01-22T09:31:05.123Z,1.48
2019-01-22T09:32:05.096Z,1.46
2019-01-22T09:33:05.079Z,1.20
2019-01-22T09:34:05.059Z,1.02
2019-01-22T09:35:05.037Z,0.94
2019-01-22T09:36:05.012Z,1.13
2019-01-22T09:37:04.995Z,1.52
2019-01-22T09:38:04.967Z,1.64
2019-01-22T09:39:04.950Z,1.62
2019-01-22T09:40:04.933Z,1.46
2019-01-22T09:41:04.907Z,1.55
2019-01-22T09:42:04.884Z,1.36
2019-01-22T09:43:04.863Z,1.35
2019-01-22T09:44:04.837Z,1.03
2019-01-22T09:45:04.831Z,0.91
2019-01-22T09:46:04.804Z,1.17
2019-01-22T09:47:04.771Z,1.20
2019-01-22T09:48:04.753Z,1.21
2019-01-22T09:49:04.756Z,1.16
2019-01-22T09:50:04.710Z,1.24
2019-01-22T09:51:04.697Z,1.34
2019-01-22T09:52:04.662Z,1.17
2019-01-22T09:53:04.641Z,0.88
2019-01-22T09:54:04.621Z,0.78
2019-01-22T09:55:04.593Z,0.85
2019-01-22T09:56:04.573Z,0.96
2019-01-22T09:57:04.547Z,1.02
2019-01-22T09:58:04.572Z,1.00
2019-01-22T09:59:04.503Z,1.10
2019-01-22T10:00:04.486Z,0.94
2019-01-22T10:01:04.457Z,0.96
2019-01-22T10:02:04.435Z,1.08
2019-01-22T10:03:04.415Z,1.09
2019-01-22T10:04:04.392Z,1.02
2019-01-22T10:05:04.366Z,1.00
2019-01-22T10:06:04.343Z,0.94
2019-01-22T10:07:04.320Z,1.20
2019-01-22T10:08:04.305Z,1.35
2019-01-22T10:09:04.271Z,1.67
2019-01-22T10:10:04.250Z,1.66
2019-01-22T10:11:04.229Z,1.67
2019-01-22T10:12:04.203Z,2.14
2019-01-22T10:13:04.182Z,2.76
2019-01-22T10:14:04.164Z,2.97
2019-01-22T10:15:04.137Z,3.05
2019-01-22T10:16:04.121Z,2.97
2019-01-22T10:17:04.092Z,2.73
2019-01-22T10:18:04.074Z,2.75
2019-01-22T10:19:04.050Z,2.54
2019-01-22T10:20:04.029Z,2.89
2019-01-22T10:21:04.008Z,3.14
2019-01-22T10:22:03.988Z,3.35
2019-01-22T10:23:03.962Z,3.18
2019-01-22T10:24:03.941Z,2.93
2019-01-22T10:25:03.922Z,2.97
2019-01-22T10:26:03.903Z,3.25
2019-01-22T10:27:03.879Z,3.55
2019-01-22T10:28:03.864Z,3.55
2019-01-22T10:29:03.840Z,3.44
2019-01-22T10:30:03.825Z,3.14
2019-01-22T10:31:03.796Z,3.05
2019-01-22T10:32:03.785Z,2.99
2019-01-22T10:33:03.755Z,2.71
2019-01-22T10:34:03.736Z,2.86
2019-01-22T10:35:03.727Z,3.18
2019-01-22T10:36:03.690Z,3.09
2019-01-22T10:37:03.668Z,2.99
2019-01-22T10:38:03.659Z,3.17
2019-01-22T10:39:04.164Z,3.44
2019-01-22T10:40:03.606Z,3.66
2019-01-22T10:41:03.583Z,3.09
2019-01-22T10:42:03.582Z,2.45
2019-01-22T10:43:09.207Z,2.37
2019-01-22T10:44:03.525Z,2.17
2019-01-22T10:45:03.508Z,2.07
2019-01-22T10:46:03.478Z,2.12
2019-01-22T10:47:03.463Z,2.32
2019-01-22T10:48:03.440Z,2.24
2019-01-22T10:49:03.421Z,2.53
2019-01-22T10:50:03.399Z,2.60
2019-01-22T10:51:03.374Z,2.66
2019-01-22T10:52:03.348Z,2.61
2019-01-22T10:53:03.332Z,2.72
2019-01-22T10:54:03.326Z,2.69
2019-01-22T10:55:03.284Z,2.79
2019-01-22T10:56:03.261Z,2.97
2019-01-22T10:57:03.244Z,2.97
2019-01-22T10:58:03.843Z,2.91
2019-01-22T10:59:03.199Z,2.76
2019-01-22T11:00:03.177Z,2.65
2019-01-22T11:01:03.157Z,2.61
2019-01-22T11:02:03.128Z,2.89
2019-01-22T11:03:03.120Z,2.68
2019-01-22T11:04:03.088Z,2.54
2019-01-22T11:05:03.067Z,2.53
2019-01-22T11:06:03.045Z,2.61
2019-01-22T11:07:03.027Z,2.45
2019-01-22T11:08:03.005Z,2.58
2019-01-22T11:09:02.980Z,2.78
2019-01-22T11:10:02.958Z,2.68
2019-01-22T11:11:02.936Z,2.71
2019-01-22T11:12:02.912Z,2.73
2019-01-22T11:13:02.893Z,2.68
2019-01-22T11:14:02.863Z,2.55
2019-01-22T11:15:02.843Z,2.60
2019-01-22T11:16:02.823Z,2.63
2019-01-22T11:17:02.798Z,2.60
2019-01-22T11:18:02.784Z,2.60
2019-01-22T11:19:02.751Z,2.65
2019-01-22T11:20:02.740Z,2.61
2019-01-22T11:21:02.707Z,2.71
2019-01-22T11:22:02.692Z,3.07
2019-01-22T11:23:02.666Z,3.29
2019-01-22T11:24:02.647Z,3.62
2019-01-22T11:25:02.626Z,3.88
2019-01-22T11:26:02.599Z,3.63
2019-01-22T11:27:02.608Z,3.64
2019-01-22T11:28:02.551Z,3.94
2019-01-22T11:29:02.533Z,4.00
2019-01-22T11:30:02.513Z,3.76
2019-01-22T11:31:02.488Z,4.03
2019-01-22T11:32:02.472Z,4.21
2019-01-22T11:33:02.457Z,4.08
2019-01-22T11:34:02.426Z,4.13
2019-01-22T11:35:02.401Z,4.12
2019-01-22T11:36:02.379Z,3.63
2019-01-22T11:37:02.352Z,3.33
2019-01-22T11:38:02.343Z,3.45
2019-01-22T11:39:02.314Z,3.32
2019-01-22T11:40:02.288Z,3.52
2019-01-22T11:41:02.266Z,3.51
2019-01-22T11:42:02.243Z,3.60
2019-01-22T11:43:02.225Z,3.85
2019-01-22T11:44:02.202Z,3.91
2019-01-22T11:45:02.176Z,3.81
2019-01-22T11:46:02.154Z,4.06
2019-01-22T11:47:02.135Z,4.08
2019-01-22T11:48:02.118Z,4.03
2019-01-22T11:49:02.088Z,4.23
2019-01-22T11:50:02.075Z,4.35
2019-01-22T11:51:02.047Z,4.61
2019-01-22T11:52:02.028Z,4.69
2019-01-22T11:53:02.010Z,4.86
2019-01-22T11:54:01.981Z,4.48
2019-01-22T11:55:01.959Z,4.54
2019-01-22T11:56:01.943Z,4.43
2019-01-22T11:57:01.923Z,4.35
2019-01-22T11:58:01.895Z,4.35
2019-01-22T11:59:01.874Z,4.20
2019-01-22T12:00:01.865Z,4.08
2019-01-22T12:01:01.843Z,4.31
2019-01-22T12:02:01.812Z,4.51
2019-01-22T12:03:01.798Z,4.61
2019-01-22T12:04:01.774Z,4.51
2019-01-22T12:05:01.757Z,4.88
2019-01-22T12:06:01.729Z,5.01
2019-01-22T12:07:01.712Z,5.15
2019-01-22T12:08:01.687Z,5.41
2019-01-22T12:09:01.669Z,5.65
2019-01-22T12:10:01.648Z,5.77
2019-01-22T12:11:01.621Z,5.87
2019-01-22T12:12:01.608Z,5.65
2019-01-22T12:13:01.590Z,5.59
2019-01-22T12:14:01.561Z,5.14
2019-01-22T12:15:01.541Z,5.11
2019-01-22T12:16:01.518Z,5.43
2019-01-22T12:17:01.658Z,5.70
2019-01-22T12:18:01.481Z,5.97
2019-01-22T12:19:01.458Z,5.93
2019-01-22T12:20:01.780Z,5.47
2019-01-22T12:21:01.428Z,5.43
2019-01-22T12:22:01.395Z,5.36
2019-01-22T12:23:01.383Z,5.48
2019-01-22T12:24:01.355Z,4.88
2019-01-22T12:25:01.337Z,4.85
2019-01-22T12:26:01.318Z,4.82
2019-01-22T12:27:01.297Z,5.24
2019-01-22T12:28:01.278Z,5.65
2019-01-22T12:29:01.256Z,5.57
2019-01-22T12:30:01.240Z,5.57
2019-01-22T12:31:01.214Z,5.11
2019-01-22T12:32:01.195Z,4.83
2019-01-22T12:33:01.176Z,4.83
2019-01-22T12:34:01.153Z,5.03
2019-01-22T12:35:01.132Z,4.98
2019-01-22T12:36:01.119Z,4.74
2019-01-22T12:37:01.096Z,4.67
2019-01-22T12:38:01.070Z,4.86
2019-01-22T12:39:01.048Z,5.29
2019-01-22T12:40:01.026Z,5.47
2019-01-22T12:41:01.003Z,5.65
2019-01-22T12:42:00.989Z,5.57
2019-01-22T12:43:00.968Z,5.76
2019-01-22T12:44:00.938Z,5.52
2019-01-22T12:45:00.923Z,5.51
2019-01-22T12:46:00.898Z,5.70
2019-01-22T12:47:00.878Z,5.79
2019-01-22T12:48:00.857Z,5.85
2019-01-22T12:49:00.837Z,5.65
2019-01-22T12:50:00.897Z,5.58
2019-01-22T12:51:00.797Z,5.50
2019-01-22T12:52:00.882Z,5.50
2019-01-22T12:53:00.754Z,5.62
2019-01-22T12:54:00.740Z,5.40
2019-01-22T12:55:00.742Z,5.24
2019-01-22T12:56:04.631Z,5.27
2019-01-22T12:57:00.672Z,5.25
2019-01-22T12:58:00.657Z,5.36
2019-01-22T12:59:00.633Z,5.22
2019-01-22T13:00:00.609Z,5.27
2019-01-22T13:01:00.588Z,5.40
2019-01-22T13:02:00.575Z,5.40